createdAt,value
2022-08-26T16:04:09.752Z,32.66
2022-08-26T16:07:43.368Z,32.32
2022-08-26T16:11:23.089Z,32.32
2022-08-26T16:15:01.304Z,32.38
2022-08-26T16:18:40.200Z,32.40
2022-08-26T16:22:17.781Z,32.37
2022-08-26T16:25:55.425Z,32.35
2022-08-26T16:29:33.441Z,32.34
2022-08-26T16:33:14.410Z,32.34
2022-08-26T16:37:06.637Z,32.33
2022-08-26T16:40:44.283Z,32.30
2022-08-26T16:44:22.074Z,32.26
2022-08-26T16:47:59.833Z,32.21
2022-08-26T16:51:38.517Z,32.15
2022-08-26T16:55:16.162Z,32.04
2022-08-26T16:58:53.668Z,31.97
2022-08-26T17:02:32.582Z,31.87
2022-08-26T17:06:11.579Z,31.76
2022-08-26T17:09:49.265Z,31.64
2022-08-26T17:13:35.746Z,31.49
2022-08-26T17:17:14.181Z,31.36
2022-08-26T17:20:52.738Z,31.20
2022-08-26T17:24:33.998Z,31.06
2022-08-26T17:28:13.561Z,30.97
2022-08-26T17:31:51.728Z,30.91
2022-08-26T17:35:28.674Z,30.85
2022-08-26T17:39:05.680Z,30.80
2022-08-26T17:42:43.917Z,30.72
2022-08-26T17:46:21.463Z,30.69
2022-08-26T17:50:00.617Z,30.62
2022-08-26T17:53:39.498Z,30.54
2022-08-26T17:57:16.480Z,30.45
2022-08-26T18:00:56.695Z,30.36
2022-08-26T18:04:34.460Z,30.24
2022-08-26T18:08:12.254Z,30.14
2022-08-26T18:11:51.935Z,30.03
2022-08-26T18:15:29.695Z,29.93
2022-08-26T18:19:07.400Z,29.85
2022-08-26T18:22:47.317Z,29.79
2022-08-26T18:26:37.087Z,29.76
2022-08-26T18:30:18.931Z,29.73
2022-08-26T18:33:58.875Z,29.70
2022-08-26T18:37:36.477Z,29.66
2022-08-26T18:41:14.801Z,29.62
2022-08-26T18:44:51.678Z,29.61
2022-08-26T18:48:29.893Z,29.60
2022-08-26T18:52:07.131Z,29.56
2022-08-26T18:55:45.636Z,29.51
2022-08-26T18:59:28.804Z,29.48
2022-08-26T19:03:08.292Z,29.43
2022-08-26T19:06:57.094Z,29.24
2022-08-26T19:10:39.764Z,28.94
2022-08-26T19:14:18.267Z,28.62
2022-08-26T19:17:55.802Z,28.34
2022-08-26T19:21:35.487Z,28.13
2022-08-26T19:25:12.881Z,27.99
2022-08-26T19:28:51.404Z,27.92
2022-08-26T19:32:30.654Z,27.87
2022-08-26T19:36:14.784Z,27.85
2022-08-26T19:39:52.756Z,27.80
2022-08-26T19:43:30.608Z,27.77
2022-08-26T19:47:11.089Z,27.75
2022-08-26T19:50:48.934Z,27.74
2022-08-26T19:54:26.748Z,27.74
2022-08-26T19:58:03.783Z,27.76
2022-08-26T20:01:41.170Z,27.78
2022-08-26T20:05:21.774Z,27.80
2022-08-26T20:09:00.611Z,27.81
2022-08-26T20:12:37.930Z,27.82
2022-08-26T20:16:17.323Z,27.81
2022-08-26T20:19:55.037Z,27.82
2022-08-26T20:23:32.699Z,27.83
2022-08-26T20:27:11.390Z,27.84
2022-08-26T20:30:48.590Z,27.86
2022-08-26T20:34:27.139Z,27.88
2022-08-26T20:38:04.753Z,27.90
2022-08-26T20:41:44.674Z,27.92
2022-08-26T20:45:22.785Z,27.96
2022-08-26T20:49:00.832Z,27.99
2022-08-26T20:52:38.400Z,28.01
2022-08-26T20:56:18.224Z,28.05
2022-08-26T20:59:55.882Z,28.09
2022-08-26T21:03:33.837Z,28.14
2022-08-26T21:07:11.786Z,28.21
2022-08-26T21:10:49.961Z,28.24
2022-08-26T21:14:30.049Z,28.29
2022-08-26T21:18:07.737Z,28.33
2022-08-26T21:21:47.653Z,28.37
2022-08-26T21:25:25.348Z,28.39
2022-08-26T21:29:05.315Z,28.39
2022-08-26T21:32:43.244Z,28.36
2022-08-26T21:36:20.923Z,28.29
2022-08-26T21:40:00.038Z,28.19
2022-08-26T21:43:39.050Z,28.13
2022-08-26T21:47:17.158Z,28.08
2022-08-26T21:50:54.964Z,28.02
2022-08-26T21:54:32.568Z,27.94
2022-08-26T21:58:10.403Z,27.89
2022-08-26T22:01:48.475Z,27.85
2022-08-26T22:05:27.475Z,27.77
2022-08-26T22:09:06.203Z,27.69
2022-08-26T22:12:43.987Z,27.62
2022-08-26T22:16:21.895Z,27.59
2022-08-26T22:20:00.007Z,27.60
2022-08-26T22:23:38.969Z,27.61
2022-08-26T22:27:16.197Z,27.62
2022-08-26T22:30:53.388Z,27.64
2022-08-26T22:34:30.786Z,27.65
2022-08-26T22:38:09.672Z,27.67
2022-08-26T22:41:48.925Z,27.67
2022-08-26T22:45:27.435Z,27.65
2022-08-26T22:49:04.993Z,27.65
2022-08-26T22:52:42.103Z,27.63
2022-08-26T22:56:21.290Z,27.62
2022-08-26T22:59:58.645Z,27.59
2022-08-26T23:03:37.057Z,27.55
2022-08-26T23:07:14.605Z,27.50
2022-08-26T23:10:52.524Z,27.45
2022-08-26T23:14:32.179Z,27.39
2022-08-26T23:18:10.471Z,27.34
2022-08-26T23:21:49.816Z,27.30
2022-08-26T23:25:28.567Z,27.26
2022-08-26T23:29:07.988Z,27.21
2022-08-26T23:32:45.533Z,27.18
2022-08-26T23:36:23.183Z,27.15
2022-08-26T23:40:09.139Z,27.13
2022-08-26T23:43:46.369Z,27.10
2022-08-26T23:47:25.190Z,27.08
2022-08-26T23:51:03.442Z,27.05
2022-08-26T23:54:41.036Z,27.01
2022-08-26T23:58:20.202Z,26.96
